sensor_id;sensor_type;location;lat;lon;timestamp;pressure;altitude;pressure_sealevel;temperature;humidity
29417;BME280;28421;51.030;4.006;2022-11-21T06:04:17;100556.19;;;6.45;72.04
29417;BME280;28421;51.030;4.006;2022-11-21T06:06:43;100548.25;;;6.35;72.54
29417;BME280;28421;51.030;4.006;2022-11-21T06:09:08;100550.16;;;6.43;72.28
29417;BME280;28421;51.030;4.006;2022-11-21T06:11:34;100547.88;;;6.48;71.80
29417;BME280;28421;51.030;4.006;2022-11-21T06:13:59;100553.81;;;6.42;72.55
29417;BME280;28421;51.030;4.006;2022-11-21T06:16:24;100539.09;;;6.38;72.02
29417;BME280;28421;51.030;4.006;2022-11-21T06:18:50;100549.00;;;6.28;72.62
29417;BME280;28421;51.030;4.006;2022-11-21T06:21:23;100541.06;;;6.36;72.67
29417;BME280;28421;51.030;4.006;2022-11-21T06:23:53;100528.72;;;6.35;72.44
29417;BME280;28421;51.030;4.006;2022-11-21T06:26:22;100522.38;;;6.36;72.07
29417;BME280;28421;51.030;4.006;2022-11-21T06:28:48;100515.69;;;6.32;71.93
29417;BME280;28421;51.030;4.006;2022-11-21T06:31:16;100514.22;;;6.37;71.65
29417;BME280;28421;51.030;4.006;2022-11-21T06:33:43;100517.03;;;6.36;71.61
29417;BME280;28421;51.030;4.006;2022-11-21T06:36:14;100505.59;;;6.26;71.65
29417;BME280;28421;51.030;4.006;2022-11-21T06:38:41;100499.72;;;6.22;71.70
29417;BME280;28421;51.030;4.006;2022-11-21T06:41:10;100503.47;;;6.11;71.33
29417;BME280;28421;51.030;4.006;2022-11-21T06:43:36;100492.22;;;5.90;72.22
29417;BME280;28421;51.030;4.006;2022-11-21T06:46:01;100488.41;;;5.92;71.88
29417;BME280;28421;51.030;4.006;2022-11-21T06:48:30;100484.91;;;5.92;71.96
29417;BME280;28421;51.030;4.006;2022-11-21T06:50:56;100490.03;;;6.03;71.35
29417;BME280;28421;51.030;4.006;2022-11-21T06:53:22;100490.00;;;5.85;72.00
29417;BME280;28421;51.030;4.006;2022-11-21T06:55:47;100471.16;;;5.87;71.74
29417;BME280;28421;51.030;4.006;2022-11-21T06:58:13;100472.53;;;5.91;71.72
29417;BME280;28421;51.030;4.006;2022-11-21T07:00:38;100465.53;;;5.90;71.20
29417;BME280;28421;51.030;4.006;2022-11-21T07:03:03;100467.06;;;5.92;71.11
29417;BME280;28421;51.030;4.006;2022-11-21T07:05:29;100465.28;;;5.83;71.32
29417;BME280;28421;51.030;4.006;2022-11-21T07:08:02;100464.91;;;5.78;71.29
29417;BME280;28421;51.030;4.006;2022-11-21T07:10:28;100471.69;;;5.72;71.02
29417;BME280;28421;51.030;4.006;2022-11-21T07:12:58;100477.84;;;5.73;71.12
29417;BME280;28421;51.030;4.006;2022-11-21T07:15:43;100481.94;;;5.67;71.13
29417;BME280;28421;51.030;4.006;2022-11-21T07:18:09;100477.56;;;5.48;72.09
29417;BME280;28421;51.030;4.006;2022-11-21T07:20:34;100481.84;;;5.59;71.72
29417;BME280;28421;51.030;4.006;2022-11-21T07:22:59;100478.34;;;5.59;71.64
29417;BME280;28421;51.030;4.006;2022-11-21T07:25:25;100477.22;;;5.61;72.06
29417;BME280;28421;51.030;4.006;2022-11-21T07:27:50;100481.16;;;5.57;72.17
29417;BME280;28421;51.030;4.006;2022-11-21T07:30:16;100477.06;;;5.63;72.36
29417;BME280;28421;51.030;4.006;2022-11-21T07:32:41;100469.78;;;5.83;71.70
29417;BME280;28421;51.030;4.006;2022-11-21T07:35:07;100464.44;;;5.83;72.05
29417;BME280;28421;51.030;4.006;2022-11-21T07:37:37;100461.53;;;5.76;72.19
29417;BME280;28421;51.030;4.006;2022-11-21T07:40:02;100452.69;;;5.76;72.29
29417;BME280;28421;51.030;4.006;2022-11-21T07:42:28;100449.81;;;5.69;72.70
29417;BME280;28421;51.030;4.006;2022-11-21T07:44:55;100452.00;;;5.73;73.30
29417;BME280;28421;51.030;4.006;2022-11-21T07:47:20;100455.44;;;5.66;73.63
29417;BME280;28421;51.030;4.006;2022-11-21T07:49:45;100451.63;;;5.68;73.38
29417;BME280;28421;51.030;4.006;2022-11-21T07:52:11;100453.97;;;5.71;73.99
29417;BME280;28421;51.030;4.006;2022-11-21T07:54:36;100446.69;;;5.73;73.91
29417;BME280;28421;51.030;4.006;2022-11-21T07:57:02;100429.38;;;5.78;74.21
29417;BME280;28421;51.030;4.006;2022-11-21T07:59:27;100429.75;;;5.83;74.06
29417;BME280;28421;51.030;4.006;2022-11-21T08:01:52;100430.13;;;5.88;74.05
29417;BME280;28421;51.030;4.006;2022-11-21T08:04:18;100421.56;;;5.94;73.81
29417;BME280;28421;51.030;4.006;2022-11-21T08:06:43;100403.44;;;5.88;73.89
29417;BME280;28421;51.030;4.006;2022-11-21T08:09:09;100407.78;;;5.89;73.96
29417;BME280;28421;51.030;4.006;2022-11-21T08:11:35;100411.94;;;6.01;73.77
29417;BME280;28421;51.030;4.006;2022-11-21T08:14:01;100403.09;;;6.01;73.45
29417;BME280;28421;51.030;4.006;2022-11-21T08:16:26;100400.19;;;6.12;73.72
29417;BME280;28421;51.030;4.006;2022-11-21T08:18:53;100398.53;;;6.11;73.28
29417;BME280;28421;51.030;4.006;2022-11-21T08:21:19;100400.44;;;6.18;73.23
29417;BME280;28421;51.030;4.006;2022-11-21T08:23:44;100406.06;;;6.15;74.08
29417;BME280;28421;51.030;4.006;2022-11-21T08:26:09;100376.00;;;6.13;73.40
29417;BME280;28421;51.030;4.006;2022-11-21T08:28:35;100367.34;;;6.11;73.94
29417;BME280;28421;51.030;4.006;2022-11-21T08:31:04;100362.97;;;6.28;73.80
29417;BME280;28421;51.030;4.006;2022-11-21T08:33:30;100358.50;;;6.37;73.71
29417;BME280;28421;51.030;4.006;2022-11-21T08:35:56;100356.94;;;6.52;73.46
29417;BME280;28421;51.030;4.006;2022-11-21T08:38:21;100359.66;;;6.60;72.94
29417;BME280;28421;51.030;4.006;2022-11-21T08:40:46;100349.31;;;6.65;73.20
29417;BME280;28421;51.030;4.006;2022-11-21T08:43:32;100353.16;;;6.63;73.31
29417;BME280;28421;51.030;4.006;2022-11-21T08:45:57;100341.00;;;6.68;73.46
29417;BME280;28421;51.030;4.006;2022-11-21T08:48:22;100326.34;;;6.72;73.28
29417;BME280;28421;51.030;4.006;2022-11-21T08:50:48;100335.41;;;6.88;73.25
29417;BME280;28421;51.030;4.006;2022-11-21T08:53:13;100342.59;;;6.87;73.25
29417;BME280;28421;51.030;4.006;2022-11-21T08:55:38;100343.09;;;6.91;73.59
29417;BME280;28421;51.030;4.006;2022-11-21T08:58:04;100341.63;;;7.05;73.56
29417;BME280;28421;51.030;4.006;2022-11-21T09:00:29;100340.84;;;7.12;73.05
29417;BME280;28421;51.030;4.006;2022-11-21T09:02:55;100323.19;;;7.28;73.25
29417;BME280;28421;51.030;4.006;2022-11-21T09:05:20;100324.88;;;7.37;73.34
29417;BME280;28421;51.030;4.006;2022-11-21T09:07:45;100319.34;;;7.30;73.28
29417;BME280;28421;51.030;4.006;2022-11-21T09:10:11;100309.16;;;7.50;73.10
29417;BME280;28421;51.030;4.006;2022-11-21T09:12:36;100313.69;;;7.50;72.59
29417;BME280;28421;51.030;4.006;2022-11-21T09:15:02;100305.00;;;7.56;72.88
29417;BME280;28421;51.030;4.006;2022-11-21T09:17:46;100303.81;;;7.66;72.70
29417;BME280;28421;51.030;4.006;2022-11-21T09:20:27;100302.50;;;7.70;72.64
29417;BME280;28421;51.030;4.006;2022-11-21T09:22:52;100303.69;;;7.60;72.56
29417;BME280;28421;51.030;4.006;2022-11-21T09:25:18;100298.16;;;7.69;72.38
29417;BME280;28421;51.030;4.006;2022-11-21T09:27:43;100297.66;;;7.66;72.26
29417;BME280;28421;51.030;4.006;2022-11-21T09:30:09;100291.63;;;7.88;72.22
29417;BME280;28421;51.030;4.006;2022-11-21T09:32:35;100287.63;;;7.92;72.25
29417;BME280;28421;51.030;4.006;2022-11-21T09:35:01;100278.38;;;8.03;72.25
29417;BME280;28421;51.030;4.006;2022-11-21T09:37:27;100274.53;;;8.14;72.07
29417;BME280;28421;51.030;4.006;2022-11-21T09:39:52;100261.16;;;8.14;71.65
29417;BME280;28421;51.030;4.006;2022-11-21T09:45:11;100267.94;;;8.41;71.58
29417;BME280;28421;51.030;4.006;2022-11-21T09:47:46;100263.91;;;8.53;71.26
29417;BME280;28421;51.030;4.006;2022-11-21T09:57:49;100252.84;;;8.87;69.66
29417;BME280;28421;51.030;4.006;2022-11-21T10:00:19;100253.00;;;8.94;69.80
29417;BME280;28421;51.030;4.006;2022-11-21T10:02:45;100250.41;;;9.09;69.87
29417;BME280;28421;51.030;4.006;2022-11-21T10:05:12;100248.84;;;9.14;68.81
29417;BME280;28421;51.030;4.006;2022-11-21T10:07:39;100236.56;;;9.20;69.63
29417;BME280;28421;51.030;4.006;2022-11-21T10:13:12;100233.84;;;9.05;69.18
29417;BME280;28421;51.030;4.006;2022-11-21T10:18:17;100225.63;;;9.30;68.78
29417;BME280;28421;51.030;4.006;2022-11-21T10:20:49;100216.28;;;9.40;68.95
29417;BME280;28421;51.030;4.006;2022-11-21T10:26:12;100207.78;;;9.37;68.37
29417;BME280;28421;51.030;4.006;2022-11-21T10:28:51;100206.47;;;9.33;68.44
29417;BME280;28421;51.030;4.006;2022-11-21T10:31:19;100206.78;;;9.38;68.33
29417;BME280;28421;51.030;4.006;2022-11-21T10:33:45;100201.47;;;9.30;68.69
29417;BME280;28421;51.030;4.006;2022-11-21T10:38:47;100184.78;;;9.42;68.31
29417;BME280;28421;51.030;4.006;2022-11-21T10:41:18;100177.41;;;9.59;68.30
29417;BME280;28421;51.030;4.006;2022-11-21T10:46:56;100162.41;;;9.50;68.26
29417;BME280;28421;51.030;4.006;2022-11-21T10:49:24;100147.91;;;9.36;67.96
29417;BME280;28421;51.030;4.006;2022-11-21T10:51:53;100146.00;;;9.45;68.22
29417;BME280;28421;51.030;4.006;2022-11-21T10:54:21;100136.34;;;9.36;68.53
29417;BME280;28421;51.030;4.006;2022-11-21T10:57:15;100122.31;;;9.49;68.32
29417;BME280;28421;51.030;4.006;2022-11-21T10:59:55;100113.91;;;9.52;68.57
29417;BME280;28421;51.030;4.006;2022-11-21T11:02:24;100107.72;;;9.51;68.26
29417;BME280;28421;51.030;4.006;2022-11-21T11:07:41;100089.94;;;9.50;68.33
29417;BME280;28421;51.030;4.006;2022-11-21T11:10:23;100080.38;;;9.33;68.78
29417;BME280;28421;51.030;4.006;2022-11-21T11:12:49;100077.41;;;9.28;68.89
29417;BME280;28421;51.030;4.006;2022-11-21T11:15:35;100075.31;;;9.38;69.15
29417;BME280;28421;51.030;4.006;2022-11-21T11:18:04;100073.00;;;9.35;69.45
29417;BME280;28421;51.030;4.006;2022-11-21T11:20:42;100064.22;;;9.56;69.29
29417;BME280;28421;51.030;4.006;2022-11-21T11:25:45;100039.53;;;9.45;68.96
29417;BME280;28421;51.030;4.006;2022-11-21T11:28:12;100033.41;;;9.66;68.99
29417;BME280;28421;51.030;4.006;2022-11-21T11:30:38;100022.94;;;9.57;68.78
29417;BME280;28421;51.030;4.006;2022-11-21T11:33:31;100026.09;;;9.75;68.92
29417;BME280;28421;51.030;4.006;2022-11-21T11:38:53;100011.34;;;9.86;68.92
29417;BME280;28421;51.030;4.006;2022-11-21T11:47:37;100001.59;;;10.00;68.59
29417;BME280;28421;51.030;4.006;2022-11-21T11:50:16;99983.69;;;9.70;69.12
29417;BME280;28421;51.030;4.006;2022-11-21T11:53:19;99976.25;;;9.87;69.27
29417;BME280;28421;51.030;4.006;2022-11-21T11:55:56;99979.06;;;9.79;69.42
29417;BME280;28421;51.030;4.006;2022-11-21T12:01:00;99967.75;;;9.84;69.33
29417;BME280;28421;51.030;4.006;2022-11-21T12:08:58;99958.19;;;9.81;69.54
29417;BME280;28421;51.030;4.006;2022-11-21T12:11:36;99952.09;;;9.87;69.59
29417;BME280;28421;51.030;4.006;2022-11-21T12:17:36;99929.25;;;9.77;70.42
29417;BME280;28421;51.030;4.006;2022-11-21T12:20:12;99926.41;;;10.00;69.96
29417;BME280;28421;51.030;4.006;2022-11-21T12:22:39;99912.66;;;9.88;70.11
29417;BME280;28421;51.030;4.006;2022-11-21T12:25:12;99914.75;;;10.14;69.85
29417;BME280;28421;51.030;4.006;2022-11-21T12:27:40;99908.56;;;10.13;69.73
29417;BME280;28421;51.030;4.006;2022-11-21T12:43:33;99869.25;;;10.55;69.13
29417;BME280;28421;51.030;4.006;2022-11-21T12:46:16;99860.97;;;10.57;69.35
29417;BME280;28421;51.030;4.006;2022-11-21T12:53:02;99844.38;;;10.75;68.66
29417;BME280;28421;51.030;4.006;2022-11-21T12:55:43;99824.63;;;10.61;68.81
29417;BME280;28421;51.030;4.006;2022-11-21T12:58:25;99820.50;;;10.58;68.96
29417;BME280;28421;51.030;4.006;2022-11-21T13:04:01;99805.63;;;10.62;68.79
29417;BME280;28421;51.030;4.006;2022-11-21T13:06:31;99791.84;;;10.44;69.30
29417;BME280;28421;51.030;4.006;2022-11-21T13:08:59;99794.44;;;10.59;69.11
29417;BME280;28421;51.030;4.006;2022-11-21T13:11:48;99795.72;;;10.69;68.97
29417;BME280;28421;51.030;4.006;2022-11-21T13:25:02;99760.94;;;10.61;69.36
29417;BME280;28421;51.030;4.006;2022-11-21T13:27:35;99769.69;;;10.77;68.92
29417;BME280;28421;51.030;4.006;2022-11-21T13:32:40;99755.81;;;10.66;69.22
29417;BME280;28421;51.030;4.006;2022-11-21T13:38:08;99735.56;;;10.77;69.62
29417;BME280;28421;51.030;4.006;2022-11-21T13:40:36;99720.66;;;10.68;69.34
29417;BME280;28421;51.030;4.006;2022-11-21T13:45:43;99706.13;;;10.56;69.75
29417;BME280;28421;51.030;4.006;2022-11-21T13:56:35;99664.81;;;10.63;69.58
29417;BME280;28421;51.030;4.006;2022-11-21T13:59:19;99661.72;;;10.66;69.20
29417;BME280;28421;51.030;4.006;2022-11-21T14:07:47;99616.03;;;10.73;68.92
29417;BME280;28421;51.030;4.006;2022-11-21T14:10:31;99604.84;;;10.69;69.01
29417;BME280;28421;51.030;4.006;2022-11-21T14:13:01;99589.16;;;10.66;68.99
29417;BME280;28421;51.030;4.006;2022-11-21T14:18:31;99596.19;;;10.74;68.92
29417;BME280;28421;51.030;4.006;2022-11-21T14:20:58;99586.88;;;10.77;68.88
29417;BME280;28421;51.030;4.006;2022-11-21T14:23:28;99584.38;;;10.62;69.09
29417;BME280;28421;51.030;4.006;2022-11-21T14:25:57;99572.78;;;10.55;68.92
29417;BME280;28421;51.030;4.006;2022-11-21T14:28:34;99570.09;;;10.61;69.18
29417;BME280;28421;51.030;4.006;2022-11-21T14:35:56;99557.50;;;10.68;68.70
29417;BME280;28421;51.030;4.006;2022-11-21T14:38:22;99545.72;;;10.89;68.33
29417;BME280;28421;51.030;4.006;2022-11-21T14:40:48;99543.22;;;10.68;68.61
29417;BME280;28421;51.030;4.006;2022-11-21T14:43:40;99544.28;;;10.67;68.86
29417;BME280;28421;51.030;4.006;2022-11-21T14:46:13;99528.13;;;10.74;68.49
29417;BME280;28421;51.030;4.006;2022-11-21T14:48:39;99546.56;;;10.77;68.45
29417;BME280;28421;51.030;4.006;2022-11-21T14:51:08;99546.75;;;10.62;68.46
29417;BME280;28421;51.030;4.006;2022-11-21T14:53:40;99544.66;;;10.51;68.81
29417;BME280;28421;51.030;4.006;2022-11-21T14:56:09;99550.84;;;10.51;68.70
29417;BME280;28421;51.030;4.006;2022-11-21T14:58:36;99550.22;;;10.42;68.67
29417;BME280;28421;51.030;4.006;2022-11-21T15:01:12;99541.13;;;10.57;68.45
29417;BME280;28421;51.030;4.006;2022-11-21T15:03:54;99539.50;;;10.56;68.51
29417;BME280;28421;51.030;4.006;2022-11-21T15:06:20;99530.63;;;10.68;68.13
29417;BME280;28421;51.030;4.006;2022-11-21T15:08:45;99518.22;;;10.67;67.91
29417;BME280;28421;51.030;4.006;2022-11-21T15:11:12;99519.22;;;10.53;67.94
29417;BME280;28421;51.030;4.006;2022-11-21T15:13:39;99525.00;;;10.43;68.46
29417;BME280;28421;51.030;4.006;2022-11-21T15:16:06;99523.75;;;10.53;68.25
29417;BME280;28421;51.030;4.006;2022-11-21T15:18:31;99527.59;;;10.24;68.87
29417;BME280;28421;51.030;4.006;2022-11-21T15:21:00;99511.97;;;10.34;68.69
29417;BME280;28421;51.030;4.006;2022-11-21T15:23:32;99512.09;;;10.19;69.15
29417;BME280;28421;51.030;4.006;2022-11-21T15:25:59;99506.72;;;10.12;69.19
29417;BME280;28421;51.030;4.006;2022-11-21T15:28:25;99496.19;;;10.24;68.94
29417;BME280;28421;51.030;4.006;2022-11-21T15:31:27;99493.34;;;10.26;68.99
29417;BME280;28421;51.030;4.006;2022-11-21T15:34:01;99481.72;;;10.18;69.36
29417;BME280;28421;51.030;4.006;2022-11-21T15:36:28;99464.34;;;10.08;69.59
29417;BME280;28421;51.030;4.006;2022-11-21T15:39:05;99465.81;;;10.17;69.37
29417;BME280;28421;51.030;4.006;2022-11-21T15:41:31;99464.84;;;10.25;69.38
29417;BME280;28421;51.030;4.006;2022-11-21T15:46:30;99450.16;;;10.34;68.86
29417;BME280;28421;51.030;4.006;2022-11-21T15:49:07;99443.34;;;10.31;69.08
29417;BME280;28421;51.030;4.006;2022-11-21T15:51:37;99451.56;;;10.23;69.28
29417;BME280;28421;51.030;4.006;2022-11-21T15:54:04;99440.00;;;10.23;69.33
29417;BME280;28421;51.030;4.006;2022-11-21T15:56:30;99435.41;;;10.10;69.72
29417;BME280;28421;51.030;4.006;2022-11-21T15:58:56;99428.41;;;10.22;69.28
29417;BME280;28421;51.030;4.006;2022-11-21T16:01:23;99421.84;;;10.25;69.64
29417;BME280;28421;51.030;4.006;2022-11-21T16:03:55;99418.06;;;10.06;70.01
29417;BME280;28421;51.030;4.006;2022-11-21T16:06:21;99406.28;;;10.07;70.16
29417;BME280;28421;51.030;4.006;2022-11-21T16:08:47;99399.09;;;10.20;69.54
29417;BME280;28421;51.030;4.006;2022-11-21T16:13:40;99395.09;;;9.90;70.53
29417;BME280;28421;51.030;4.006;2022-11-21T16:16:06;99387.88;;;9.90;70.97
29417;BME280;28421;51.030;4.006;2022-11-21T16:18:31;99376.72;;;9.80;71.10
29417;BME280;28421;51.030;4.006;2022-11-21T16:21:06;99380.63;;;9.78;71.53
29417;BME280;28421;51.030;4.006;2022-11-21T16:23:32;99377.28;;;9.69;72.05
29417;BME280;28421;51.030;4.006;2022-11-21T16:25:58;99370.50;;;9.80;71.49
29417;BME280;28421;51.030;4.006;2022-11-21T16:28:23;99343.25;;;9.83;71.57
29417;BME280;28421;51.030;4.006;2022-11-21T16:30:49;99343.84;;;9.58;72.22
29417;BME280;28421;51.030;4.006;2022-11-21T16:33:14;99347.78;;;9.76;71.97
29417;BME280;28421;51.030;4.006;2022-11-21T16:35:40;99344.47;;;9.74;72.20
29417;BME280;28421;51.030;4.006;2022-11-21T16:38:09;99314.50;;;9.57;72.46
29417;BME280;28421;51.030;4.006;2022-11-21T16:40:34;99319.06;;;9.69;72.60
29417;BME280;28421;51.030;4.006;2022-11-21T16:43:08;99317.22;;;9.63;73.15
29417;BME280;28421;51.030;4.006;2022-11-21T16:45:34;99313.09;;;9.74;72.78
29417;BME280;28421;51.030;4.006;2022-11-21T16:47:59;99309.34;;;9.62;73.16
29417;BME280;28421;51.030;4.006;2022-11-21T16:50:25;99301.06;;;9.43;73.43
29417;BME280;28421;51.030;4.006;2022-11-21T16:52:50;99301.91;;;9.51;73.49
29417;BME280;28421;51.030;4.006;2022-11-21T16:55:16;99293.25;;;9.55;73.26
29417;BME280;28421;51.030;4.006;2022-11-21T16:57:41;99292.00;;;9.51;73.47
29417;BME280;28421;51.030;4.006;2022-11-21T17:00:08;99280.59;;;9.23;74.15
29417;BME280;28421;51.030;4.006;2022-11-21T17:02:36;99281.22;;;9.31;73.79
29417;BME280;28421;51.030;4.006;2022-11-21T17:05:02;99269.88;;;9.29;73.48
29417;BME280;28421;51.030;4.006;2022-11-21T17:07:29;99254.81;;;9.35;73.48
29417;BME280;28421;51.030;4.006;2022-11-21T17:09:55;99242.03;;;9.30;73.54
29417;BME280;28421;51.030;4.006;2022-11-21T17:12:20;99249.03;;;9.31;73.85
29417;BME280;28421;51.030;4.006;2022-11-21T17:14:46;99252.16;;;9.48;73.26
29417;BME280;28421;51.030;4.006;2022-11-21T17:17:12;99231.69;;;9.27;73.53
29417;BME280;28421;51.030;4.006;2022-11-21T17:19:37;99236.91;;;9.42;73.29
29417;BME280;28421;51.030;4.006;2022-11-21T17:22:02;99237.88;;;9.28;73.84
29417;BME280;28421;51.030;4.006;2022-11-21T17:24:28;99221.81;;;9.21;73.98
29417;BME280;28421;51.030;4.006;2022-11-21T17:26:53;99225.94;;;9.30;73.83
29417;BME280;28421;51.030;4.006;2022-11-21T17:29:19;99218.88;;;9.16;74.09
29417;BME280;28421;51.030;4.006;2022-11-21T17:31:44;99206.94;;;9.32;73.57
29417;BME280;28421;51.030;4.006;2022-11-21T17:34:09;99202.81;;;9.36;73.40
29417;BME280;28421;51.030;4.006;2022-11-21T17:36:35;99205.28;;;9.24;74.01
29417;BME280;28421;51.030;4.006;2022-11-21T17:39:01;99205.94;;;9.39;73.60
29417;BME280;28421;51.030;4.006;2022-11-21T17:41:26;99195.84;;;9.41;73.42
29417;BME280;28421;51.030;4.006;2022-11-21T17:43:56;99188.38;;;9.24;73.83
29417;BME280;28421;51.030;4.006;2022-11-21T17:46:22;99199.50;;;9.20;74.47
29417;BME280;28421;51.030;4.006;2022-11-21T17:48:50;99190.84;;;9.32;74.11
29417;BME280;28421;51.030;4.006;2022-11-21T17:51:21;99186.31;;;9.26;74.27
29417;BME280;28421;51.030;4.006;2022-11-21T17:53:48;99171.84;;;9.20;74.07
29417;BME280;28421;51.030;4.006;2022-11-21T17:56:19;99174.97;;;9.30;73.86
29417;BME280;28421;51.030;4.006;2022-11-21T17:58:45;99165.06;;;9.31;73.76
29417;BME280;28421;51.030;4.006;2022-11-21T18:01:12;99168.56;;;9.31;73.97
29417;BME280;28421;51.030;4.006;2022-11-21T18:03:44;99171.25;;;9.44;73.53
29417;BME280;28421;51.030;4.006;2022-11-21T18:06:11;99170.44;;;9.44;73.63
29417;BME280;28421;51.030;4.006;2022-11-21T18:08:39;99165.88;;;9.25;74.15
29417;BME280;28421;51.030;4.006;2022-11-21T18:11:06;99164.66;;;9.27;74.35
29417;BME280;28421;51.030;4.006;2022-11-21T18:13:32;99159.09;;;9.35;74.08
29417;BME280;28421;51.030;4.006;2022-11-21T18:16:01;99159.09;;;9.35;73.70
29417;BME280;28421;51.030;4.006;2022-11-21T18:18:28;99148.56;;;9.27;74.24
29417;BME280;28421;51.030;4.006;2022-11-21T18:20:54;99148.75;;;9.32;74.44
29417;BME280;28421;51.030;4.006;2022-11-21T18:23:19;99148.78;;;9.39;74.12
29417;BME280;28421;51.030;4.006;2022-11-21T18:25:45;99148.16;;;9.24;74.53
29417;BME280;28421;51.030;4.006;2022-11-21T18:28:11;99138.25;;;9.17;74.45
29417;BME280;28421;51.030;4.006;2022-11-21T18:30:36;99139.50;;;9.21;74.45
29417;BME280;28421;51.030;4.006;2022-11-21T18:33:02;99133.91;;;9.23;74.60
29417;BME280;28421;51.030;4.006;2022-11-21T18:35:28;99120.72;;;9.15;74.71
29417;BME280;28421;51.030;4.006;2022-11-21T18:37:54;99124.84;;;9.04;75.14
29417;BME280;28421;51.030;4.006;2022-11-21T18:40:20;99096.78;;;9.07;74.84
29417;BME280;28421;51.030;4.006;2022-11-21T18:42:45;99104.00;;;9.19;74.76
29417;BME280;28421;51.030;4.006;2022-11-21T18:45:10;99099.47;;;9.27;74.39
29417;BME280;28421;51.030;4.006;2022-11-21T18:47:36;99085.44;;;9.05;75.10
29417;BME280;28421;51.030;4.006;2022-11-21T18:50:01;99093.28;;;8.93;75.38
29417;BME280;28421;51.030;4.006;2022-11-21T18:52:27;99102.34;;;9.05;75.29
29417;BME280;28421;51.030;4.006;2022-11-21T18:54:55;99086.06;;;9.13;75.19
29417;BME280;28421;51.030;4.006;2022-11-21T18:57:20;99098.41;;;9.08;75.46
29417;BME280;28421;51.030;4.006;2022-11-21T18:59:46;99094.31;;;8.92;76.24
29417;BME280;28421;51.030;4.006;2022-11-21T19:02:11;99071.19;;;8.91;76.48
29417;BME280;28421;51.030;4.006;2022-11-21T19:04:37;99078.03;;;9.00;75.98
29417;BME280;28421;51.030;4.006;2022-11-21T19:07:02;99082.97;;;9.10;75.71
29417;BME280;28421;51.030;4.006;2022-11-21T19:09:27;99056.16;;;9.03;75.93
29417;BME280;28421;51.030;4.006;2022-11-21T19:11:53;99062.53;;;9.02;75.80
29417;BME280;28421;51.030;4.006;2022-11-21T19:14:18;99058.22;;;8.88;76.63
29417;BME280;28421;51.030;4.006;2022-11-21T19:16:44;99064.81;;;9.12;75.92
29417;BME280;28421;51.030;4.006;2022-11-21T19:19:11;99063.59;;;9.01;76.12
29417;BME280;28421;51.030;4.006;2022-11-21T19:21:38;99062.31;;;8.90;76.52
29417;BME280;28421;51.030;4.006;2022-11-21T19:24:05;99064.81;;;8.99;76.36
29417;BME280;28421;51.030;4.006;2022-11-21T19:26:33;99055.13;;;9.04;76.07
29417;BME280;28421;51.030;4.006;2022-11-21T19:28:59;99058.84;;;9.10;76.05
29417;BME280;28421;51.030;4.006;2022-11-21T19:31:25;99052.63;;;9.03;75.88
29417;BME280;28421;51.030;4.006;2022-11-21T19:33:51;99063.38;;;9.03;76.36
29417;BME280;28421;51.030;4.006;2022-11-21T19:36:21;99066.06;;;9.09;76.06
29417;BME280;28421;51.030;4.006;2022-11-21T19:38:47;99074.09;;;9.09;76.01
29417;BME280;28421;51.030;4.006;2022-11-21T19:41:17;99068.94;;;9.14;75.50
29417;BME280;28421;51.030;4.006;2022-11-21T19:43:46;99076.38;;;9.12;75.87
29417;BME280;28421;51.030;4.006;2022-11-21T19:46:13;99058.84;;;8.96;76.37
29417;BME280;28421;51.030;4.006;2022-11-21T19:48:39;99050.59;;;8.98;75.92
29417;BME280;28421;51.030;4.006;2022-11-21T19:51:05;99057.59;;;8.92;76.51
29417;BME280;28421;51.030;4.006;2022-11-21T19:53:35;99059.88;;;9.02;76.62
29417;BME280;28421;51.030;4.006;2022-11-21T19:56:15;99059.84;;;8.95;76.81
29417;BME280;28421;51.030;4.006;2022-11-21T19:58:42;99052.84;;;9.01;76.59
29417;BME280;28421;51.030;4.006;2022-11-21T20:01:13;99050.19;;;9.01;76.59
29417;BME280;28421;51.030;4.006;2022-11-21T20:03:41;99051.41;;;8.99;76.78
29417;BME280;28421;51.030;4.006;2022-11-21T20:06:16;99047.50;;;9.01;76.91
29417;BME280;28421;51.030;4.006;2022-11-21T20:08:42;99039.84;;;9.11;76.49
29417;BME280;28421;51.030;4.006;2022-11-21T20:11:12;99037.19;;;9.05;76.37
29417;BME280;28421;51.030;4.006;2022-11-21T20:13:41;99053.28;;;9.18;76.23
29417;BME280;28421;51.030;4.006;2022-11-21T20:16:24;99033.06;;;9.22;75.85
29417;BME280;28421;51.030;4.006;2022-11-21T20:18:51;99029.13;;;9.18;75.95
29417;BME280;28421;51.030;4.006;2022-11-21T20:21:18;99033.69;;;9.04;76.56
29417;BME280;28421;51.030;4.006;2022-11-21T20:23:44;99025.84;;;8.96;76.52
29417;BME280;28421;51.030;4.006;2022-11-21T20:26:14;99034.09;;;9.14;76.07
29417;BME280;28421;51.030;4.006;2022-11-21T20:28:40;99025.03;;;9.09;76.20
29417;BME280;28421;51.030;4.006;2022-11-21T20:31:16;99025.41;;;9.19;75.54
29417;BME280;28421;51.030;4.006;2022-11-21T20:33:44;99021.53;;;9.08;75.85
29417;BME280;28421;51.030;4.006;2022-11-21T20:36:15;99017.59;;;9.17;75.64
29417;BME280;28421;51.030;4.006;2022-11-21T20:38:56;99022.09;;;9.24;75.56
29417;BME280;28421;51.030;4.006;2022-11-21T20:41:26;99027.47;;;9.30;75.34
29417;BME280;28421;51.030;4.006;2022-11-21T20:43:56;99024.38;;;9.20;75.13
29417;BME280;28421;51.030;4.006;2022-11-21T20:46:22;99039.66;;;9.26;75.25
29417;BME280;28421;51.030;4.006;2022-11-21T20:48:48;99034.72;;;9.10;75.81
29417;BME280;28421;51.030;4.006;2022-11-21T20:51:14;99042.34;;;9.13;75.81
29417;BME280;28421;51.030;4.006;2022-11-21T20:53:39;99030.38;;;8.95;75.91
29417;BME280;28421;51.030;4.006;2022-11-21T20:56:08;99059.44;;;8.99;76.04
29417;BME280;28421;51.030;4.006;2022-11-21T20:58:37;99052.66;;;9.09;75.87
29417;BME280;28421;51.030;4.006;2022-11-21T21:01:03;99058.59;;;9.25;75.52
29417;BME280;28421;51.030;4.006;2022-11-21T21:03:29;99057.19;;;9.15;75.72
29417;BME280;28421;51.030;4.006;2022-11-21T21:06:00;99064.41;;;9.21;75.44
29417;BME280;28421;51.030;4.006;2022-11-21T21:08:26;99061.72;;;9.15;75.56
29417;BME280;28421;51.030;4.006;2022-11-21T21:10:59;99057.59;;;9.06;75.89
29417;BME280;28421;51.030;4.006;2022-11-21T21:13:25;99059.25;;;9.13;75.90